sensor_id;sensor_type;location;lat;lon;timestamp;P1;durP1;ratioP1;P2;durP2;ratioP2
10571;SDS011;5334;48.928;12.704;2022-11-15T00:00:32;37.87;;;36.27;;
10571;SDS011;5334;48.928;12.704;2022-11-15T00:02:59;34.93;;;33.43;;
10571;SDS011;5334;48.928;12.704;2022-11-15T00:05:25;36.27;;;34.73;;
10571;SDS011;5334;48.928;12.704;2022-11-15T00:07:50;40.83;;;39.07;;
10571;SDS011;5334;48.928;12.704;2022-11-15T00:10:16;33.00;;;31.60;;
10571;SDS011;5334;48.928;12.704;2022-11-15T00:12:42;40.67;;;38.90;;
10571;SDS011;5334;48.928;12.704;2022-11-15T00:15:07;36.83;;;35.23;;
10571;SDS011;5334;48.928;12.704;2022-11-15T00:17:33;35.00;;;33.50;;
10571;SDS011;5334;48.928;12.704;2022-11-15T00:19:59;44.87;;;42.90;;
10571;SDS011;5334;48.928;12.704;2022-11-15T00:22:24;33.40;;;32.00;;
10571;SDS011;5334;48.928;12.704;2022-11-15T00:24:55;47.70;;;45.63;;
10571;SDS011;5334;48.928;12.704;2022-11-15T00:27:21;47.63;;;45.57;;
10571;SDS011;5334;48.928;12.704;2022-11-15T00:29:47;42.17;;;40.37;;
10571;SDS011;5334;48.928;12.704;2022-11-15T00:32:12;37.00;;;35.40;;
10571;SDS011;5334;48.928;12.704;2022-11-15T00:34:38;31.93;;;30.57;;
10571;SDS011;5334;48.928;12.704;2022-11-15T00:37:04;40.40;;;38.70;;
10571;SDS011;5334;48.928;12.704;2022-11-15T00:39:31;45.20;;;43.23;;
10571;SDS011;5334;48.928;12.704;2022-11-15T00:41:56;71.47;;;68.40;;
10571;SDS011;5334;48.928;12.704;2022-11-15T00:44:22;45.43;;;43.43;;
10571;SDS011;5334;48.928;12.704;2022-11-15T00:46:48;49.20;;;47.00;;
10571;SDS011;5334;48.928;12.704;2022-11-15T00:49:13;38.43;;;36.80;;
10571;SDS011;5334;48.928;12.704;2022-11-15T00:51:39;48.07;;;46.00;;
10571;SDS011;5334;48.928;12.704;2022-11-15T00:54:05;55.63;;;53.23;;
10571;SDS011;5334;48.928;12.704;2022-11-15T00:56:30;50.77;;;48.60;;
10571;SDS011;5334;48.928;12.704;2022-11-15T00:58:56;35.03;;;33.53;;
10571;SDS011;5334;48.928;12.704;2022-11-15T01:01:22;35.67;;;34.17;;
10571;SDS011;5334;48.928;12.704;2022-11-15T01:03:47;35.87;;;34.37;;
10571;SDS011;5334;48.928;12.704;2022-11-15T01:06:13;37.87;;;36.27;;
10571;SDS011;5334;48.928;12.704;2022-11-15T01:08:39;43.27;;;41.37;;
10571;SDS011;5334;48.928;12.704;2022-11-15T01:11:06;51.50;;;49.27;;
10571;SDS011;5334;48.928;12.704;2022-11-15T01:13:35;42.20;;;40.37;;
10571;SDS011;5334;48.928;12.704;2022-11-15T01:16:09;35.67;;;34.13;;
10571;SDS011;5334;48.928;12.704;2022-11-15T01:18:36;38.80;;;37.10;;
10571;SDS011;5334;48.928;12.704;2022-11-15T01:21:09;35.17;;;33.67;;
10571;SDS011;5334;48.928;12.704;2022-11-15T01:23:37;36.67;;;35.00;;
10571;SDS011;5334;48.928;12.704;2022-11-15T01:26:03;49.97;;;47.77;;
10571;SDS011;5334;48.928;12.704;2022-11-15T01:28:32;44.00;;;42.10;;
10571;SDS011;5334;48.928;12.704;2022-11-15T01:30:59;72.00;;;68.90;;
10571;SDS011;5334;48.928;12.704;2022-11-15T01:33:25;45.30;;;43.37;;
10571;SDS011;5334;48.928;12.704;2022-11-15T01:35:52;40.03;;;38.33;;
10571;SDS011;5334;48.928;12.704;2022-11-15T01:38:17;38.13;;;36.47;;
10571;SDS011;5334;48.928;12.704;2022-11-15T01:40:43;52.23;;;49.97;;
10571;SDS011;5334;48.928;12.704;2022-11-15T01:43:19;44.53;;;42.63;;
10571;SDS011;5334;48.928;12.704;2022-11-15T01:45:45;44.83;;;42.83;;
10571;SDS011;5334;48.928;12.704;2022-11-15T01:48:15;30.03;;;28.73;;
10571;SDS011;5334;48.928;12.704;2022-11-15T01:50:40;39.80;;;38.07;;
10571;SDS011;5334;48.928;12.704;2022-11-15T01:53:06;47.63;;;45.57;;
10571;SDS011;5334;48.928;12.704;2022-11-15T01:55:32;68.00;;;65.07;;
10571;SDS011;5334;48.928;12.704;2022-11-15T01:57:59;40.90;;;39.10;;
10571;SDS011;5334;48.928;12.704;2022-11-15T02:00:28;40.50;;;38.73;;
10571;SDS011;5334;48.928;12.704;2022-11-15T02:02:55;35.87;;;34.30;;
10571;SDS011;5334;48.928;12.704;2022-11-15T02:05:20;40.50;;;38.73;;
10571;SDS011;5334;48.928;12.704;2022-11-15T02:07:46;46.10;;;44.10;;
10571;SDS011;5334;48.928;12.704;2022-11-15T02:10:17;41.53;;;39.73;;
10571;SDS011;5334;48.928;12.704;2022-11-15T02:12:44;55.70;;;53.23;;
10571;SDS011;5334;48.928;12.704;2022-11-15T02:15:11;47.97;;;45.87;;
10571;SDS011;5334;48.928;12.704;2022-11-15T02:29:15;39.27;;;37.57;;
10571;SDS011;5334;48.928;12.704;2022-11-15T02:32:06;41.90;;;40.10;;
10571;SDS011;5334;48.928;12.704;2022-11-15T02:34:50;36.10;;;34.53;;
10571;SDS011;5334;48.928;12.704;2022-11-15T02:37:29;39.87;;;38.17;;
10571;SDS011;5334;48.928;12.704;2022-11-15T02:40:23;37.63;;;36.03;;
10571;SDS011;5334;48.928;12.704;2022-11-15T02:43:14;30.77;;;29.47;;
10571;SDS011;5334;48.928;12.704;2022-11-15T02:46:09;36.53;;;34.93;;
10571;SDS011;5334;48.928;12.704;2022-11-15T02:48:42;31.37;;;30.00;;
10571;SDS011;5334;48.928;12.704;2022-11-15T02:51:09;34.97;;;33.47;;
10571;SDS011;5334;48.928;12.704;2022-11-15T02:53:36;27.57;;;26.37;;
10571;SDS011;5334;48.928;12.704;2022-11-15T02:56:02;42.50;;;40.63;;
10571;SDS011;5334;48.928;12.704;2022-11-15T03:06:49;36.67;;;35.03;;
10571;SDS011;5334;48.928;12.704;2022-11-15T03:12:12;31.70;;;30.30;;
10571;SDS011;5334;48.928;12.704;2022-11-15T03:17:28;39.43;;;37.73;;
10571;SDS011;5334;48.928;12.704;2022-11-15T03:20:00;34.13;;;32.63;;
10571;SDS011;5334;48.928;12.704;2022-11-15T03:22:29;46.47;;;44.47;;
10571;SDS011;5334;48.928;12.704;2022-11-15T03:25:00;24.03;;;23.03;;
10571;SDS011;5334;48.928;12.704;2022-11-15T03:27:33;52.53;;;50.27;;
10571;SDS011;5334;48.928;12.704;2022-11-15T03:30:01;27.17;;;25.97;;
10571;SDS011;5334;48.928;12.704;2022-11-15T03:32:34;35.43;;;33.93;;
10571;SDS011;5334;48.928;12.704;2022-11-15T03:35:08;27.27;;;26.10;;
10571;SDS011;5334;48.928;12.704;2022-11-15T03:38:37;35.87;;;34.27;;
10571;SDS011;5334;48.928;12.704;2022-11-15T03:40:41;38.80;;;37.10;;
10571;SDS011;5334;48.928;12.704;2022-11-15T03:45:46;33.17;;;31.70;;
10571;SDS011;5334;48.928;12.704;2022-11-15T03:48:35;35.77;;;34.23;;
10571;SDS011;5334;48.928;12.704;2022-11-15T03:51:28;44.37;;;42.47;;
10571;SDS011;5334;48.928;12.704;2022-11-15T03:53:54;75.50;;;72.23;;
10571;SDS011;5334;48.928;12.704;2022-11-15T03:56:20;53.00;;;50.70;;
10571;SDS011;5334;48.928;12.704;2022-11-15T03:58:46;123.63;;;118.23;;
10571;SDS011;5334;48.928;12.704;2022-11-15T04:01:11;40.67;;;38.90;;
10571;SDS011;5334;48.928;12.704;2022-11-15T04:03:37;86.93;;;83.17;;
10571;SDS011;5334;48.928;12.704;2022-11-15T04:06:03;69.70;;;66.67;;
10571;SDS011;5334;48.928;12.704;2022-11-15T04:08:29;72.90;;;69.73;;
10571;SDS011;5334;48.928;12.704;2022-11-15T04:10:54;67.97;;;65.03;;
10571;SDS011;5334;48.928;12.704;2022-11-15T04:13:20;53.77;;;51.47;;
10571;SDS011;5334;48.928;12.704;2022-11-15T04:15:45;55.17;;;52.77;;
10571;SDS011;5334;48.928;12.704;2022-11-15T04:18:11;46.87;;;44.70;;
10571;SDS011;5334;48.928;12.704;2022-11-15T04:20:37;65.20;;;62.40;;
10571;SDS011;5334;48.928;12.704;2022-11-15T04:23:22;56.50;;;54.07;;
10571;SDS011;5334;48.928;12.704;2022-11-15T04:26:07;56.90;;;54.43;;
10571;SDS011;5334;48.928;12.704;2022-11-15T04:28:39;44.07;;;42.13;;
10571;SDS011;5334;48.928;12.704;2022-11-15T04:31:23;89.27;;;85.43;;
10571;SDS011;5334;48.928;12.704;2022-11-15T04:33:49;48.50;;;46.40;;
10571;SDS011;5334;48.928;12.704;2022-11-15T04:36:15;39.97;;;38.27;;
10571;SDS011;5334;48.928;12.704;2022-11-15T04:38:59;37.33;;;35.73;;
10571;SDS011;5334;48.928;12.704;2022-11-15T04:41:24;54.30;;;51.93;;
10571;SDS011;5334;48.928;12.704;2022-11-15T04:43:50;38.20;;;36.53;;
10571;SDS011;5334;48.928;12.704;2022-11-15T04:46:16;36.40;;;34.80;;
10571;SDS011;5334;48.928;12.704;2022-11-15T04:48:42;46.60;;;44.57;;
10571;SDS011;5334;48.928;12.704;2022-11-15T04:51:08;34.20;;;32.73;;
10571;SDS011;5334;48.928;12.704;2022-11-15T04:53:33;36.80;;;35.20;;
10571;SDS011;5334;48.928;12.704;2022-11-15T04:55:59;59.23;;;56.63;;
10571;SDS011;5334;48.928;12.704;2022-11-15T04:58:25;41.70;;;39.90;;
10571;SDS011;5334;48.928;12.704;2022-11-15T05:00:50;40.53;;;38.77;;
10571;SDS011;5334;48.928;12.704;2022-11-15T05:03:16;27.20;;;26.03;;
10571;SDS011;5334;48.928;12.704;2022-11-15T05:06:00;34.20;;;32.70;;
10571;SDS011;5334;48.928;12.704;2022-11-15T05:08:27;43.03;;;41.17;;
10571;SDS011;5334;48.928;12.704;2022-11-15T05:10:52;42.03;;;40.23;;
10571;SDS011;5334;48.928;12.704;2022-11-15T05:13:18;41.37;;;39.57;;
10571;SDS011;5334;48.928;12.704;2022-11-15T05:15:44;45.13;;;43.13;;
10571;SDS011;5334;48.928;12.704;2022-11-15T05:18:09;55.17;;;52.77;;
10571;SDS011;5334;48.928;12.704;2022-11-15T05:20:36;48.10;;;46.00;;
10571;SDS011;5334;48.928;12.704;2022-11-15T05:23:02;36.33;;;34.73;;
10571;SDS011;5334;48.928;12.704;2022-11-15T05:25:28;46.50;;;44.47;;
10571;SDS011;5334;48.928;12.704;2022-11-15T05:27:53;46.33;;;44.30;;
10571;SDS011;5334;48.928;12.704;2022-11-15T05:30:19;40.53;;;38.80;;
10571;SDS011;5334;48.928;12.704;2022-11-15T05:32:45;26.97;;;25.80;;
10571;SDS011;5334;48.928;12.704;2022-11-15T05:35:17;32.17;;;30.77;;
10571;SDS011;5334;48.928;12.704;2022-11-15T05:38:10;1345.97;;;678.73;;
10571;SDS011;5334;48.928;12.704;2022-11-15T05:40:36;36.70;;;35.10;;
10571;SDS011;5334;48.928;12.704;2022-11-15T05:43:02;39.67;;;37.97;;
10571;SDS011;5334;48.928;12.704;2022-11-15T05:45:29;37.17;;;35.57;;
10571;SDS011;5334;48.928;12.704;2022-11-15T05:47:58;26.17;;;25.07;;
10571;SDS011;5334;48.928;12.704;2022-11-15T05:50:26;37.70;;;36.03;;
10571;SDS011;5334;48.928;12.704;2022-11-15T05:52:53;41.77;;;39.97;;
10571;SDS011;5334;48.928;12.704;2022-11-15T05:55:20;30.67;;;29.37;;
10571;SDS011;5334;48.928;12.704;2022-11-15T05:57:45;33.03;;;31.63;;
10571;SDS011;5334;48.928;12.704;2022-11-15T06:00:11;38.17;;;36.53;;
10571;SDS011;5334;48.928;12.704;2022-11-15T06:02:37;25.70;;;24.60;;
10571;SDS011;5334;48.928;12.704;2022-11-15T06:05:03;40.53;;;38.80;;
10571;SDS011;5334;48.928;12.704;2022-11-15T06:07:29;1999.90;;;999.90;;
10571;SDS011;5334;48.928;12.704;2022-11-15T06:09:55;1999.90;;;999.90;;
10571;SDS011;5334;48.928;12.704;2022-11-15T06:12:21;54.20;;;51.80;;
10571;SDS011;5334;48.928;12.704;2022-11-15T06:14:47;39.37;;;37.67;;
10571;SDS011;5334;48.928;12.704;2022-11-15T06:17:12;35.73;;;34.20;;
10571;SDS011;5334;48.928;12.704;2022-11-15T06:19:38;30.63;;;29.33;;
10571;SDS011;5334;48.928;12.704;2022-11-15T06:22:04;32.90;;;31.40;;
10571;SDS011;5334;48.928;12.704;2022-11-15T06:24:30;39.77;;;38.07;;
10571;SDS011;5334;48.928;12.704;2022-11-15T06:26:55;35.77;;;34.23;;
10571;SDS011;5334;48.928;12.704;2022-11-15T06:29:22;25.00;;;23.93;;
10571;SDS011;5334;48.928;12.704;2022-11-15T06:31:48;36.10;;;34.50;;
10571;SDS011;5334;48.928;12.704;2022-11-15T06:34:14;47.20;;;45.13;;
10571;SDS011;5334;48.928;12.704;2022-11-15T06:36:39;28.10;;;26.90;;
10571;SDS011;5334;48.928;12.704;2022-11-15T06:39:05;26.27;;;25.17;;
10571;SDS011;5334;48.928;12.704;2022-11-15T06:41:33;35.27;;;33.77;;
10571;SDS011;5334;48.928;12.704;2022-11-15T06:44:00;39.97;;;38.27;;
10571;SDS011;5334;48.928;12.704;2022-11-15T06:46:26;39.97;;;38.27;;
10571;SDS011;5334;48.928;12.704;2022-11-15T06:48:52;34.63;;;33.13;;
10571;SDS011;5334;48.928;12.704;2022-11-15T06:51:18;35.37;;;33.87;;
10571;SDS011;5334;48.928;12.704;2022-11-15T06:53:44;32.67;;;31.27;;
10571;SDS011;5334;48.928;12.704;2022-11-15T06:56:10;27.67;;;26.47;;
10571;SDS011;5334;48.928;12.704;2022-11-15T06:58:35;33.90;;;32.40;;
10571;SDS011;5334;48.928;12.704;2022-11-15T07:01:08;29.70;;;28.40;;
10571;SDS011;5334;48.928;12.704;2022-11-15T07:03:39;1999.90;;;999.90;;
10571;SDS011;5334;48.928;12.704;2022-11-15T07:06:06;48.63;;;46.53;;
10571;SDS011;5334;48.928;12.704;2022-11-15T07:08:32;1999.90;;;999.90;;
10571;SDS011;5334;48.928;12.704;2022-11-15T07:11:03;38.17;;;36.50;;
10571;SDS011;5334;48.928;12.704;2022-11-15T07:13:31;31.80;;;30.33;;
10571;SDS011;5334;48.928;12.704;2022-11-15T07:16:04;27.60;;;26.40;;
10571;SDS011;5334;48.928;12.704;2022-11-15T07:18:35;62.47;;;59.77;;
10571;SDS011;5334;48.928;12.704;2022-11-15T07:21:05;30.47;;;29.17;;
10571;SDS011;5334;48.928;12.704;2022-11-15T07:23:33;29.97;;;28.67;;
10571;SDS011;5334;48.928;12.704;2022-11-15T07:26:01;28.57;;;27.37;;
10571;SDS011;5334;48.928;12.704;2022-11-15T07:28:26;35.83;;;34.27;;
10571;SDS011;5334;48.928;12.704;2022-11-15T07:30:52;55.10;;;52.70;;
10571;SDS011;5334;48.928;12.704;2022-11-15T07:33:18;44.53;;;42.53;;
10571;SDS011;5334;48.928;12.704;2022-11-15T07:35:44;27.80;;;26.60;;
10571;SDS011;5334;48.928;12.704;2022-11-15T07:38:13;49.43;;;47.30;;
10571;SDS011;5334;48.928;12.704;2022-11-15T07:40:40;61.67;;;58.73;;
10571;SDS011;5334;48.928;12.704;2022-11-15T07:43:06;54.47;;;52.10;;
10571;SDS011;5334;48.928;12.704;2022-11-15T07:45:33;52.30;;;50.00;;
10571;SDS011;5334;48.928;12.704;2022-11-15T07:48:04;42.90;;;41.07;;
10571;SDS011;5334;48.928;12.704;2022-11-15T07:50:31;57.10;;;54.60;;
10571;SDS011;5334;48.928;12.704;2022-11-15T07:52:57;55.67;;;53.27;;
10571;SDS011;5334;48.928;12.704;2022-11-15T07:55:24;76.93;;;73.60;;
10571;SDS011;5334;48.928;12.704;2022-11-15T07:57:52;69.53;;;66.53;;
10571;SDS011;5334;48.928;12.704;2022-11-15T08:00:18;59.33;;;56.73;;
10571;SDS011;5334;48.928;12.704;2022-11-15T08:02:44;94.00;;;89.90;;
10571;SDS011;5334;48.928;12.704;2022-11-15T08:05:10;82.70;;;79.10;;
10571;SDS011;5334;48.928;12.704;2022-11-15T08:07:36;136.60;;;130.70;;
10571;SDS011;5334;48.928;12.704;2022-11-15T08:10:03;83.77;;;80.10;;
10571;SDS011;5334;48.928;12.704;2022-11-15T08:12:31;94.73;;;90.63;;
10571;SDS011;5334;48.928;12.704;2022-11-15T08:14:57;89.73;;;85.87;;
10571;SDS011;5334;48.928;12.704;2022-11-15T08:17:23;71.60;;;68.43;;
10571;SDS011;5334;48.928;12.704;2022-11-15T08:19:49;99.07;;;94.77;;
10571;SDS011;5334;48.928;12.704;2022-11-15T08:22:15;81.03;;;77.53;;
10571;SDS011;5334;48.928;12.704;2022-11-15T08:24:41;72.13;;;69.00;;
10571;SDS011;5334;48.928;12.704;2022-11-15T08:27:07;151.07;;;144.57;;
10571;SDS011;5334;48.928;12.704;2022-11-15T08:29:40;95.47;;;91.30;;
10571;SDS011;5334;48.928;12.704;2022-11-15T08:32:06;130.17;;;124.50;;
10571;SDS011;5334;48.928;12.704;2022-11-15T08:34:32;143.33;;;137.23;;
10571;SDS011;5334;48.928;12.704;2022-11-15T08:36:58;79.40;;;75.93;;
10571;SDS011;5334;48.928;12.704;2022-11-15T08:39:24;102.17;;;97.73;;
10571;SDS011;5334;48.928;12.704;2022-11-15T08:41:49;116.13;;;111.13;;
10571;SDS011;5334;48.928;12.704;2022-11-15T08:44:15;101.60;;;97.17;;
10571;SDS011;5334;48.928;12.704;2022-11-15T08:46:41;89.10;;;85.20;;
10571;SDS011;5334;48.928;12.704;2022-11-15T08:49:07;83.60;;;79.97;;
10571;SDS011;5334;48.928;12.704;2022-11-15T08:51:32;99.87;;;95.47;;
10571;SDS011;5334;48.928;12.704;2022-11-15T08:53:58;1999.90;;;999.90;;
10571;SDS011;5334;48.928;12.704;2022-11-15T08:56:24;1999.90;;;999.90;;
10571;SDS011;5334;48.928;12.704;2022-11-15T08:58:50;1999.90;;;999.90;;
10571;SDS011;5334;48.928;12.704;2022-11-15T09:01:17;1999.90;;;999.90;;
10571;SDS011;5334;48.928;12.704;2022-11-15T09:03:44;1999.90;;;999.90;;
10571;SDS011;5334;48.928;12.704;2022-11-15T09:06:09;1999.90;;;999.90;;
10571;SDS011;5334;48.928;12.704;2022-11-15T09:08:35;1999.90;;;999.90;;
10571;SDS011;5334;48.928;12.704;2022-11-15T09:11:05;1999.90;;;999.90;;
10571;SDS011;5334;48.928;12.704;2022-11-15T09:13:32;1999.90;;;999.90;;
10571;SDS011;5334;48.928;12.704;2022-11-15T09:15:59;1999.90;;;999.90;;
10571;SDS011;5334;48.928;12.704;2022-11-15T09:18:25;1999.90;;;999.90;;
10571;SDS011;5334;48.928;12.704;2022-11-15T09:20:54;1999.90;;;999.90;;
10571;SDS011;5334;48.928;12.704;2022-11-15T09:23:24;1999.90;;;999.90;;
10571;SDS011;5334;48.928;12.704;2022-11-15T09:25:51;1999.90;;;999.90;;
10571;SDS011;5334;48.928;12.704;2022-11-15T09:28:18;1999.90;;;999.90;;
10571;SDS011;5334;48.928;12.704;2022-11-15T09:30:44;1999.90;;;999.90;;
10571;SDS011;5334;48.928;12.704;2022-11-15T09:33:10;1999.90;;;999.90;;
10571;SDS011;5334;48.928;12.704;2022-11-15T09:35:37;1999.90;;;999.90;;
10571;SDS011;5334;48.928;12.704;2022-11-15T09:38:03;138.70;;;132.63;;
10571;SDS011;5334;48.928;12.704;2022-11-15T09:40:29;108.00;;;103.33;;
10571;SDS011;5334;48.928;12.704;2022-11-15T09:43:03;1999.90;;;999.90;;
10571;SDS011;5334;48.928;12.704;2022-11-15T09:48:51;1999.90;;;999.90;;
10571;SDS011;5334;48.928;12.704;2022-11-15T09:51:24;1999.90;;;999.90;;
10571;SDS011;5334;48.928;12.704;2022-11-15T09:54:18;1999.90;;;999.90;;
10571;SDS011;5334;48.928;12.704;2022-11-15T09:56:46;1999.90;;;999.90;;
10571;SDS011;5334;48.928;12.704;2022-11-15T10:04:13;1999.90;;;999.90;;
10571;SDS011;5334;48.928;12.704;2022-11-15T10:07:01;1369.97;;;701.73;;
10571;SDS011;5334;48.928;12.704;2022-11-15T10:12:08;1999.90;;;999.90;;
10571;SDS011;5334;48.928;12.704;2022-11-15T10:14:36;1999.90;;;999.90;;
10571;SDS011;5334;48.928;12.704;2022-11-15T10:27:55;1999.90;;;999.90;;
10571;SDS011;5334;48.928;12.704;2022-11-15T10:30:38;1999.90;;;999.90;;
10571;SDS011;5334;48.928;12.704;2022-11-15T10:33:13;1999.90;;;999.90;;
10571;SDS011;5334;48.928;12.704;2022-11-15T10:36:16;1999.90;;;999.90;;
10571;SDS011;5334;48.928;12.704;2022-11-15T10:41:15;1999.90;;;999.90;;
10571;SDS011;5334;48.928;12.704;2022-11-15T10:43:41;1999.90;;;999.90;;
10571;SDS011;5334;48.928;12.704;2022-11-15T10:46:20;1999.90;;;999.90;;
10571;SDS011;5334;48.928;12.704;2022-11-15T10:48:47;1999.90;;;999.90;;
10571;SDS011;5334;48.928;12.704;2022-11-15T10:51:21;1999.90;;;999.90;;
10571;SDS011;5334;48.928;12.704;2022-11-15T10:53:53;1999.90;;;999.90;;
10571;SDS011;5334;48.928;12.704;2022-11-15T10:56:21;1999.90;;;999.90;;
10571;SDS011;5334;48.928;12.704;2022-11-15T10:58:56;1999.90;;;999.90;;
10571;SDS011;5334;48.928;12.704;2022-11-15T11:01:23;1999.90;;;999.90;;
10571;SDS011;5334;48.928;12.704;2022-11-15T11:06:51;1999.90;;;999.90;;
10571;SDS011;5334;48.928;12.704;2022-11-15T11:12:11;1999.90;;;999.90;;
10571;SDS011;5334;48.928;12.704;2022-11-15T11:14:38;1999.90;;;999.90;;
10571;SDS011;5334;48.928;12.704;2022-11-15T11:34:17;1999.90;;;999.90;;
10571;SDS011;5334;48.928;12.704;2022-11-15T11:39:53;1999.90;;;999.90;;
10571;SDS011;5334;48.928;12.704;2022-11-15T11:42:28;1999.90;;;999.90;;
10571;SDS011;5334;48.928;12.704;2022-11-15T11:50:50;1999.90;;;999.90;;
10571;SDS011;5334;48.928;12.704;2022-11-15T11:53:52;1999.90;;;999.90;;
10571;SDS011;5334;48.928;12.704;2022-11-15T11:56:23;1999.90;;;999.90;;
10571;SDS011;5334;48.928;12.704;2022-11-15T11:58:53;741.77;;;405.10;;
10571;SDS011;5334;48.928;12.704;2022-11-15T12:01:30;109.33;;;104.47;;
10571;SDS011;5334;48.928;12.704;2022-11-15T12:04:09;1999.90;;;999.90;;
10571;SDS011;5334;48.928;12.704;2022-11-15T12:06:51;1999.90;;;999.90;;
10571;SDS011;5334;48.928;12.704;2022-11-15T12:15:22;146.07;;;139.57;;
10571;SDS011;5334;48.928;12.704;2022-11-15T12:17:57;159.10;;;152.27;;
10571;SDS011;5334;48.928;12.704;2022-11-15T12:20:30;117.00;;;111.97;;
10571;SDS011;5334;48.928;12.704;2022-11-15T12:26:01;166.63;;;159.43;;
10571;SDS011;5334;48.928;12.704;2022-11-15T12:31:10;187.90;;;179.83;;
10571;SDS011;5334;48.928;12.704;2022-11-15T12:33:44;219.77;;;210.03;;
10571;SDS011;5334;48.928;12.704;2022-11-15T12:38:50;1999.90;;;999.90;;
10571;SDS011;5334;48.928;12.704;2022-11-15T12:41:20;402.50;;;372.10;;
10571;SDS011;5334;48.928;12.704;2022-11-15T12:43:48;1999.90;;;999.90;;
10571;SDS011;5334;48.928;12.704;2022-11-15T12:49:16;240.60;;;230.30;;
10571;SDS011;5334;48.928;12.704;2022-11-15T13:02:19;1999.90;;;999.90;;
10571;SDS011;5334;48.928;12.704;2022-11-15T13:05:51;1999.90;;;999.90;;
10571;SDS011;5334;48.928;12.704;2022-11-15T13:08:08;1999.90;;;999.90;;
10571;SDS011;5334;48.928;12.704;2022-11-15T13:10:34;1999.90;;;999.90;;
10571;SDS011;5334;48.928;12.704;2022-11-15T13:13:04;1999.90;;;999.90;;
10571;SDS011;5334;48.928;12.704;2022-11-15T13:16:06;256.60;;;245.70;;
10571;SDS011;5334;48.928;12.704;2022-11-15T13:18:28;822.67;;;482.67;;
10571;SDS011;5334;48.928;12.704;2022-11-15T13:20:59;181.27;;;173.30;;
10571;SDS011;5334;48.928;12.704;2022-11-15T13:23:25;1999.90;;;999.90;;
10571;SDS011;5334;48.928;12.704;2022-11-15T13:34:17;246.00;;;235.57;;
10571;SDS011;5334;48.928;12.704;2022-11-15T13:36:58;280.73;;;268.87;;
10571;SDS011;5334;48.928;12.704;2022-11-15T13:39:33;1407.00;;;737.17;;
10571;SDS011;5334;48.928;12.704;2022-11-15T13:42:02;202.00;;;193.30;;
10571;SDS011;5334;48.928;12.704;2022-11-15T13:44:31;185.53;;;177.50;;
10571;SDS011;5334;48.928;12.704;2022-11-15T13:47:05;144.33;;;137.93;;
10571;SDS011;5334;48.928;12.704;2022-11-15T13:49:37;160.43;;;153.43;;
10571;SDS011;5334;48.928;12.704;2022-11-15T13:52:04;166.07;;;158.83;;
10571;SDS011;5334;48.928;12.704;2022-11-15T13:57:10;156.70;;;149.90;;
10571;SDS011;5334;48.928;12.704;2022-11-15T14:02:26;151.67;;;145.07;;
10571;SDS011;5334;48.928;12.704;2022-11-15T14:04:55;131.77;;;126.00;;
10571;SDS011;5334;48.928;12.704;2022-11-15T14:07:25;139.03;;;132.97;;
10571;SDS011;5334;48.928;12.704;2022-11-15T14:09:53;122.57;;;117.23;;
10571;SDS011;5334;48.928;12.704;2022-11-15T14:12:30;135.33;;;129.50;;
10571;SDS011;5334;48.928;12.704;2022-11-15T14:14:59;131.03;;;125.30;;
10571;SDS011;5334;48.928;12.704;2022-11-15T14:17:42;147.40;;;140.97;;
10571;SDS011;5334;48.928;12.704;2022-11-15T14:20:19;138.93;;;132.87;;
10571;SDS011;5334;48.928;12.704;2022-11-15T14:25:55;120.30;;;115.10;;
10571;SDS011;5334;48.928;12.704;2022-11-15T14:30:48;127.97;;;122.43;;
10571;SDS011;5334;48.928;12.704;2022-11-15T14:35:56;128.73;;;123.13;;
10571;SDS011;5334;48.928;12.704;2022-11-15T14:38:36;131.20;;;125.47;;
10571;SDS011;5334;48.928;12.704;2022-11-15T14:41:02;114.50;;;109.57;;
10571;SDS011;5334;48.928;12.704;2022-11-15T14:43:29;100.20;;;95.87;;
10571;SDS011;5334;48.928;12.704;2022-11-15T14:45:55;99.80;;;95.47;;
10571;SDS011;5334;48.928;12.704;2022-11-15T14:48:21;120.60;;;115.37;;
10571;SDS011;5334;48.928;12.704;2022-11-15T14:50:47;87.90;;;84.10;;
10571;SDS011;5334;48.928;12.704;2022-11-15T14:53:13;111.27;;;106.47;;
10571;SDS011;5334;48.928;12.704;2022-11-15T14:55:41;91.70;;;87.70;;
10571;SDS011;5334;48.928;12.704;2022-11-15T14:58:07;97.63;;;93.40;;
10571;SDS011;5334;48.928;12.704;2022-11-15T15:00:34;109.70;;;104.97;;
10571;SDS011;5334;48.928;12.704;2022-11-15T15:03:01;149.73;;;143.23;;
10571;SDS011;5334;48.928;12.704;2022-11-15T15:07:57;112.87;;;107.97;;
10571;SDS011;5334;48.928;12.704;2022-11-15T15:10:24;104.97;;;100.40;;
10571;SDS011;5334;48.928;12.704;2022-11-15T15:12:52;117.77;;;112.67;;
10571;SDS011;5334;48.928;12.704;2022-11-15T15:15:21;90.27;;;86.33;;
10571;SDS011;5334;48.928;12.704;2022-11-15T15:17:50;74.13;;;70.90;;
10571;SDS011;5334;48.928;12.704;2022-11-15T15:20:16;73.27;;;70.07;;
10571;SDS011;5334;48.928;12.704;2022-11-15T15:22:42;75.63;;;72.37;;
10571;SDS011;5334;48.928;12.704;2022-11-15T15:27:45;77.77;;;74.37;;
10571;SDS011;5334;48.928;12.704;2022-11-15T15:30:11;82.50;;;78.93;;
10571;SDS011;5334;48.928;12.704;2022-11-15T15:32:36;97.07;;;92.83;;
10571;SDS011;5334;48.928;12.704;2022-11-15T15:35:02;110.63;;;105.83;;
10571;SDS011;5334;48.928;12.704;2022-11-15T15:37:28;88.10;;;84.30;;
10571;SDS011;5334;48.928;12.704;2022-11-15T15:39:55;132.27;;;126.57;;
10571;SDS011;5334;48.928;12.704;2022-11-15T15:42:22;85.80;;;82.00;;
10571;SDS011;5334;48.928;12.704;2022-11-15T15:44:48;84.57;;;80.87;;
10571;SDS011;5334;48.928;12.704;2022-11-15T15:47:16;64.73;;;61.90;;
10571;SDS011;5334;48.928;12.704;2022-11-15T15:49:46;76.50;;;73.20;;
10571;SDS011;5334;48.928;12.704;2022-11-15T15:52:13;77.30;;;73.93;;
10571;SDS011;5334;48.928;12.704;2022-11-15T15:54:41;84.53;;;80.90;;
10571;SDS011;5334;48.928;12.704;2022-11-15T15:57:07;93.03;;;89.03;;
10571;SDS011;5334;48.928;12.704;2022-11-15T15:59:35;78.07;;;74.67;;
10571;SDS011;5334;48.928;12.704;2022-11-15T16:02:01;70.47;;;67.40;;
10571;SDS011;5334;48.928;12.704;2022-11-15T16:04:27;65.07;;;62.23;;
10571;SDS011;5334;48.928;12.704;2022-11-15T16:06:57;86.83;;;83.07;;
10571;SDS011;5334;48.928;12.704;2022-11-15T16:09:23;78.70;;;75.27;;
10571;SDS011;5334;48.928;12.704;2022-11-15T16:12:09;80.20;;;76.70;;
10571;SDS011;5334;48.928;12.704;2022-11-15T16:14:35;81.07;;;77.53;;
10571;SDS011;5334;48.928;12.704;2022-11-15T16:17:01;86.47;;;82.73;;
10571;SDS011;5334;48.928;12.704;2022-11-15T16:19:27;106.20;;;101.63;;
10571;SDS011;5334;48.928;12.704;2022-11-15T16:21:53;86.73;;;82.97;;
10571;SDS011;5334;48.928;12.704;2022-11-15T16:24:19;89.47;;;85.53;;
10571;SDS011;5334;48.928;12.704;2022-11-15T16:26:46;91.60;;;87.60;;
10571;SDS011;5334;48.928;12.704;2022-11-15T16:29:13;85.77;;;82.07;;
10571;SDS011;5334;48.928;12.704;2022-11-15T16:31:39;96.83;;;92.63;;
10571;SDS011;5334;48.928;12.704;2022-11-15T16:34:06;88.23;;;84.37;;
10571;SDS011;5334;48.928;12.704;2022-11-15T16:36:32;106.30;;;101.63;;
10571;SDS011;5334;48.928;12.704;2022-11-15T16:38:59;101.73;;;97.33;;
10571;SDS011;5334;48.928;12.704;2022-11-15T16:41:28;100.87;;;96.50;;